RUK879F EGHH-EGPH
Flight info
| Callsign | RUK879F |
|---|---|
| Flight time | N/A |
| Altitude | 32000 |
| Route | SAM Q41 SILVA M605 DTY UY53 SAPCO UN57 POL UN601 RIBEL DCT INPIP |
| Aircraft | B738/M-SDE2E3FGHIRWXY/LB1 |
Departure
| Time | 2026-04-30 14:47 |
|---|---|
| Airport | Bournemouth Airport (EGHH) |
Arrival
| Time | N/A |
|---|---|
| Airport | Edinburgh Airport (EGPH) |
| Time | Latitude | Longitude | Altitude | Speed | Heading |
|---|---|---|---|---|---|
| 2026-04-30 14:31 | 50.77884 | -1.83391 | 40 ft | 0 kts | 87° |
| 2026-04-30 14:38 | 50.77884 | -1.83403 | 40 ft | 2 kts | 88° |
| 2026-04-30 14:38 | 50.77884 | -1.83429 | 40 ft | 2 kts | 103° |
| 2026-04-30 14:38 | 50.77889 | -1.83454 | 38 ft | 2 kts | 110° |
| 2026-04-30 14:38 | 50.77897 | -1.83476 | 38 ft | 2 kts | 143° |
| 2026-04-30 14:39 | 50.77911 | -1.83486 | 38 ft | 2 kts | 166° |
| 2026-04-30 14:39 | 50.77916 | -1.83488 | 37 ft | 0 kts | 169° |
| 2026-04-30 14:41 | 50.77911 | -1.83487 | 38 ft | 3 kts | 169° |
| 2026-04-30 14:41 | 50.77870 | -1.83476 | 39 ft | 9 kts | 175° |
| 2026-04-30 14:41 | 50.77806 | -1.83472 | 42 ft | 9 kts | 175° |
| 2026-04-30 14:41 | 50.77743 | -1.83466 | 42 ft | 9 kts | 181° |
| 2026-04-30 14:42 | 50.77682 | -1.83471 | 42 ft | 9 kts | 184° |
| 2026-04-30 14:42 | 50.77619 | -1.83491 | 40 ft | 11 kts | 200° |
| 2026-04-30 14:42 | 50.77576 | -1.83589 | 42 ft | 12 kts | 264° |
| 2026-04-30 14:42 | 50.77576 | -1.83724 | 42 ft | 12 kts | 271° |
| 2026-04-30 14:43 | 50.77584 | -1.83854 | 43 ft | 12 kts | 278° |
| 2026-04-30 14:43 | 50.77602 | -1.83988 | 42 ft | 14 kts | 283° |
| 2026-04-30 14:43 | 50.77627 | -1.84141 | 41 ft | 15 kts | 285° |
| 2026-04-30 14:43 | 50.77659 | -1.84297 | 42 ft | 15 kts | 289° |
| 2026-04-30 14:44 | 50.77690 | -1.84447 | 44 ft | 14 kts | 285° |
| 2026-04-30 14:44 | 50.77712 | -1.84595 | 42 ft | 13 kts | 281° |
| 2026-04-30 14:44 | 50.77727 | -1.84733 | 42 ft | 12 kts | 283° |
| 2026-04-30 14:44 | 50.77742 | -1.84804 | 42 ft | 4 kts | 294° |
| 2026-04-30 14:45 | 50.77743 | -1.84807 | 42 ft | 0 kts | 294° |
| 2026-04-30 14:45 | 50.77747 | -1.84820 | 42 ft | 3 kts | 297° |
| 2026-04-30 14:45 | 50.77766 | -1.84875 | 43 ft | 8 kts | 298° |
| 2026-04-30 14:45 | 50.77800 | -1.84972 | 45 ft | 12 kts | 300° |
| 2026-04-30 14:46 | 50.77844 | -1.85078 | 46 ft | 9 kts | 336° |
| 2026-04-30 14:46 | 50.77877 | -1.85025 | 47 ft | 5 kts | 76° |
| 2026-04-30 14:46 | 50.77890 | -1.84944 | 46 ft | 13 kts | 76° |
| 2026-04-30 14:46 | 50.77925 | -1.84728 | 48 ft | 56 kts | 76° |
| 2026-04-30 14:47 | 50.78169 | -1.83255 | 90 ft | 142 kts | 75° |
| 2026-04-30 14:47 | 50.78453 | -1.81740 | 881 ft | 144 kts | 80° |
| 2026-04-30 14:47 | 50.78746 | -1.80200 | 1691 ft | 152 kts | 79° |
| 2026-04-30 14:47 | 50.79072 | -1.78463 | 2203 ft | 179 kts | 77° |
| 2026-04-30 14:48 | 50.79475 | -1.76483 | 2667 ft | 202 kts | 76° |
| 2026-04-30 14:48 | 50.80035 | -1.74258 | 2858 ft | 234 kts | 66° |
| 2026-04-30 14:48 | 50.80918 | -1.71942 | 3310 ft | 253 kts | 62° |
| 2026-04-30 14:48 | 50.81883 | -1.69569 | 4143 ft | 259 kts | 62° |
| 2026-04-30 14:49 | 50.82864 | -1.67150 | 5052 ft | 262 kts | 63° |
| 2026-04-30 14:49 | 50.83850 | -1.64681 | 5801 ft | 270 kts | 62° |
| 2026-04-30 14:49 | 50.84853 | -1.62143 | 6662 ft | 272 kts | 63° |
| 2026-04-30 14:49 | 50.85846 | -1.59607 | 7470 ft | 275 kts | 63° |
| 2026-04-30 14:50 | 50.87901 | -1.54304 | 9075 ft | 285 kts | 63° |
| 2026-04-30 14:50 | 50.88940 | -1.51613 | 9899 ft | 289 kts | 63° |
| 2026-04-30 14:51 | 50.91109 | -1.45962 | 10804 ft | 321 kts | 63° |
| 2026-04-30 14:51 | 50.91883 | -1.43942 | 11166 ft | 327 kts | 62° |
| 2026-04-30 14:51 | 50.94284 | -1.37713 | 12704 ft | 335 kts | 60° |
| 2026-04-30 14:52 | 50.96602 | -1.34270 | 13802 ft | 352 kts | 33° |
| 2026-04-30 14:52 | 51.00529 | -1.32187 | 15084 ft | 364 kts | 18° |
| 2026-04-30 14:52 | 51.03002 | -1.31223 | 15806 ft | 369 kts | 17° |
| 2026-04-30 14:53 | 51.08063 | -1.29237 | 17286 ft | 378 kts | 17° |
| 2026-04-30 14:53 | 51.10625 | -1.28192 | 18007 ft | 383 kts | 18° |
| 2026-04-30 14:54 | 51.15845 | -1.26018 | 19337 ft | 392 kts | 18° |
| 2026-04-30 14:54 | 51.21198 | -1.23768 | 20643 ft | 399 kts | 19° |
| 2026-04-30 14:55 | 51.26597 | -1.21475 | 21895 ft | 407 kts | 19° |
| 2026-04-30 14:55 | 51.29370 | -1.20295 | 22525 ft | 411 kts | 19° |
| 2026-04-30 14:55 | 51.34974 | -1.17907 | 23731 ft | 419 kts | 19° |
| 2026-04-30 14:56 | 51.40594 | -1.15498 | 24769 ft | 424 kts | 19° |
| 2026-04-30 14:56 | 51.46373 | -1.13003 | 25795 ft | 430 kts | 19° |
| 2026-04-30 14:57 | 51.49232 | -1.11770 | 26264 ft | 433 kts | 19° |
| 2026-04-30 14:57 | 51.55104 | -1.09271 | 27216 ft | 439 kts | 19° |
| 2026-04-30 14:58 | 51.61034 | -1.06746 | 28286 ft | 440 kts | 18° |
| 2026-04-30 14:58 | 51.64020 | -1.05689 | 28952 ft | 440 kts | 14° |
| 2026-04-30 14:58 | 51.70058 | -1.04211 | 30194 ft | 438 kts | 11° |
| 2026-04-30 14:59 | 51.76086 | -1.02766 | 31167 ft | 437 kts | 12° |
| 2026-04-30 15:00 | 51.85120 | -1.00882 | 32150 ft | 446 kts | 1° |
| 2026-04-30 15:00 | 51.91242 | -1.02455 | 32188 ft | 444 kts | 348° |
| 2026-04-30 15:01 | 51.97227 | -1.04619 | 32189 ft | 440 kts | 349° |
| 2026-04-30 15:01 | 52.06253 | -1.07573 | 32227 ft | 442 kts | 350° |
| 2026-04-30 15:02 | 52.12298 | -1.09533 | 32238 ft | 443 kts | 350° |
| 2026-04-30 15:03 | 52.21234 | -1.13300 | 32267 ft | 444 kts | 338° |
| 2026-04-30 15:03 | 52.26922 | -1.17236 | 32254 ft | 444 kts | 337° |
| 2026-04-30 15:04 | 52.41124 | -1.26962 | 32235 ft | 442 kts | 338° |
| 2026-04-30 15:05 | 52.49641 | -1.32732 | 32103 ft | 441 kts | 338° |
| 2026-04-30 15:06 | 52.55319 | -1.36578 | 32077 ft | 441 kts | 339° |
| 2026-04-30 15:07 | 52.66802 | -1.43460 | 32071 ft | 441 kts | 341° |
| 2026-04-30 15:08 | 52.78315 | -1.50400 | 32208 ft | 440 kts | 340° |
| 2026-04-30 15:09 | 52.92739 | -1.59214 | 32214 ft | 443 kts | 340° |
| 2026-04-30 15:10 | 53.04296 | -1.66317 | 32200 ft | 444 kts | 340° |
| 2026-04-30 15:11 | 53.21689 | -1.77083 | 32211 ft | 444 kts | 340° |
| 2026-04-30 15:13 | 53.36147 | -1.86105 | 32216 ft | 443 kts | 339° |
| 2026-04-30 15:14 | 53.56324 | -1.98807 | 32216 ft | 442 kts | 339° |
| 2026-04-30 15:17 | 53.82165 | -2.15628 | 32205 ft | 445 kts | 337° |
| 2026-04-30 15:19 | 54.05191 | -2.31471 | 32219 ft | 448 kts | 337° |